createdAt,value
2022-12-18T00:01:41.169Z,-6.41
2022-12-18T00:04:15.912Z,-6.45
2022-12-18T00:06:42.506Z,-6.51
2022-12-18T00:09:11.111Z,-6.57
2022-12-18T00:11:37.729Z,-6.57
2022-12-18T00:14:04.192Z,-6.60
2022-12-18T00:16:33.758Z,-6.57
2022-12-18T00:19:00.900Z,-6.58
2022-12-18T00:21:31.355Z,-6.62
2022-12-18T00:23:59.083Z,-6.67
2022-12-18T00:26:29.892Z,-6.72
2022-12-18T00:29:01.326Z,-6.80
2022-12-18T00:31:31.086Z,-6.78
2022-12-18T00:33:58.404Z,-6.80
2022-12-18T00:36:28.174Z,-6.85
2022-12-18T00:38:55.941Z,-6.91
2022-12-18T00:41:41.620Z,-6.94
2022-12-18T00:44:10.853Z,-6.88
2022-12-18T00:46:37.310Z,-6.85
2022-12-18T00:49:04.312Z,-6.90
2022-12-18T00:51:31.326Z,-6.96
2022-12-18T00:53:57.881Z,-6.97
2022-12-18T00:56:25.255Z,-6.94
2022-12-18T00:58:53.080Z,-6.95
2022-12-18T01:01:19.614Z,-6.91
2022-12-18T01:03:47.516Z,-6.91
2022-12-18T01:06:15.660Z,-6.86
2022-12-18T01:08:42.948Z,-6.79
2022-12-18T01:11:15.681Z,-6.73
2022-12-18T01:13:42.312Z,-6.74
2022-12-18T01:16:09.977Z,-6.78
2022-12-18T01:18:36.592Z,-6.83
2022-12-18T01:21:17.978Z,-6.86
2022-12-18T01:23:44.340Z,-6.89
2022-12-18T01:26:16.648Z,-6.96
2022-12-18T01:28:44.759Z,-6.99
2022-12-18T01:31:31.660Z,-6.97
2022-12-18T01:34:01.145Z,-6.94
2022-12-18T01:36:30.236Z,-6.94
2022-12-18T01:38:57.916Z,-6.98
2022-12-18T01:41:51.078Z,-7.03
2022-12-18T01:44:55.407Z,-7.10
2022-12-18T01:47:41.343Z,-7.11
2022-12-18T01:50:26.256Z,-7.13
2022-12-18T01:52:56.405Z,-7.13
2022-12-18T01:55:25.542Z,-7.14
2022-12-18T01:57:58.629Z,-7.11
2022-12-18T02:00:26.445Z,-7.06
2022-12-18T02:02:55.440Z,-7.00
2022-12-18T02:05:38.606Z,-6.97
2022-12-18T02:08:31.746Z,-6.95
2022-12-18T02:10:58.501Z,-6.90
2022-12-18T02:13:27.928Z,-6.92
2022-12-18T02:16:06.975Z,-6.95
2022-12-18T02:18:36.731Z,-6.90
2022-12-18T02:21:28.590Z,-6.86
2022-12-18T02:24:13.508Z,-6.84
2022-12-18T02:26:48.416Z,-6.83
2022-12-18T02:29:28.405Z,-6.79
2022-12-18T02:31:58.701Z,-6.78
2022-12-18T02:34:31.290Z,-6.79
2022-12-18T02:37:00.936Z,-6.78
2022-12-18T02:39:30.307Z,-6.79
2022-12-18T02:42:08.532Z,-6.79
2022-12-18T02:44:40.165Z,-6.83
2022-12-18T02:47:12.819Z,-6.85
2022-12-18T02:50:04.965Z,-6.85
2022-12-18T02:52:45.001Z,-6.81
2022-12-18T02:55:46.080Z,-6.82
2022-12-18T02:58:21.525Z,-6.85
2022-12-18T03:01:04.666Z,-6.86
2022-12-18T03:03:39.993Z,-6.76
2022-12-18T03:06:28.141Z,-6.72
2022-12-18T03:09:07.100Z,-6.67
2022-12-18T03:11:56.892Z,-6.65
2022-12-18T03:14:26.349Z,-6.65
2022-12-18T03:16:58.945Z,-6.58
2022-12-18T03:19:29.086Z,-6.55
2022-12-18T03:22:01.772Z,-6.53
2022-12-18T03:24:38.276Z,-6.50
2022-12-18T03:27:10.099Z,-6.47
2022-12-18T03:29:43.468Z,-6.47
2022-12-18T03:32:20.050Z,-6.43
2022-12-18T03:34:49.993Z,-6.43
2022-12-18T03:37:17.799Z,-6.42
2022-12-18T03:39:44.526Z,-6.41
2022-12-18T03:42:23.317Z,-6.40
2022-12-18T03:45:07.258Z,-6.41
2022-12-18T03:47:50.648Z,-6.44
2022-12-18T03:50:30.681Z,-6.46
2022-12-18T03:53:06.322Z,-6.45
2022-12-18T03:55:35.490Z,-6.46
2022-12-18T03:58:08.341Z,-6.47
2022-12-18T04:00:50.701Z,-6.45
2022-12-18T04:03:22.701Z,-6.45
2022-12-18T04:05:56.347Z,-6.39
2022-12-18T04:08:24.496Z,-6.37
2022-12-18T04:11:00.554Z,-6.37
2022-12-18T04:13:34.999Z,-6.42
2022-12-18T04:16:03.932Z,-6.34
2022-12-18T04:18:30.993Z,-6.32
2022-12-18T04:20:57.530Z,-6.32
2022-12-18T04:23:25.088Z,-6.33
2022-12-18T04:25:53.857Z,-6.32
2022-12-18T04:28:33.576Z,-6.38
2022-12-18T04:31:00.377Z,-6.32
2022-12-18T04:33:27.997Z,-6.30
2022-12-18T04:35:54.631Z,-6.30
2022-12-18T04:38:21.118Z,-6.29
2022-12-18T04:40:54.133Z,-6.29
2022-12-18T04:43:26.018Z,-6.32
2022-12-18T04:45:52.481Z,-6.33
2022-12-18T04:48:18.979Z,-6.31
2022-12-18T04:50:45.387Z,-6.33
2022-12-18T04:53:11.822Z,-6.31
2022-12-18T04:55:38.225Z,-6.35
2022-12-18T04:58:05.270Z,-6.44
2022-12-18T05:00:31.710Z,-6.40
2022-12-18T05:02:58.232Z,-6.39
2022-12-18T05:05:24.817Z,-6.40
2022-12-18T05:07:51.204Z,-6.39
2022-12-18T05:10:17.686Z,-6.38
2022-12-18T05:13:04.402Z,-6.34
2022-12-18T05:15:32.326Z,-6.31
2022-12-18T05:17:59.861Z,-6.31
2022-12-18T05:20:27.472Z,-6.30
2022-12-18T05:22:54.257Z,-6.34
2022-12-18T05:25:21.514Z,-6.32
2022-12-18T05:27:48.407Z,-6.30
2022-12-18T05:30:15.326Z,-6.30
2022-12-18T05:32:41.981Z,-6.31
2022-12-18T05:35:10.532Z,-6.31
2022-12-18T05:37:42.517Z,-6.32
2022-12-18T05:40:10.319Z,-6.32
2022-12-18T05:42:36.736Z,-6.29
2022-12-18T05:45:03.594Z,-6.34
2022-12-18T05:47:30.099Z,-6.32
2022-12-18T05:49:56.641Z,-6.34
2022-12-18T05:52:23.738Z,-6.32
2022-12-18T05:54:50.212Z,-6.31
2022-12-18T05:57:16.655Z,-6.32
2022-12-18T05:59:43.077Z,-6.35
2022-12-18T06:02:09.611Z,-6.36
2022-12-18T06:04:36.173Z,-6.36
2022-12-18T06:07:03.898Z,-6.37
2022-12-18T06:09:30.544Z,-6.36
2022-12-18T06:11:56.990Z,-6.37
2022-12-18T06:14:23.422Z,-6.38
2022-12-18T06:16:52.868Z,-6.37
2022-12-18T06:19:19.299Z,-6.37
2022-12-18T06:21:45.746Z,-6.36
2022-12-18T06:24:12.211Z,-6.36
2022-12-18T06:26:39.902Z,-6.38
2022-12-18T06:29:07.095Z,-6.36
2022-12-18T06:31:33.735Z,-6.36
2022-12-18T06:34:02.653Z,-6.33
2022-12-18T06:36:30.654Z,-6.33
2022-12-18T06:38:58.488Z,-6.34
2022-12-18T06:41:25.175Z,-6.38
2022-12-18T06:43:55.586Z,-6.36
2022-12-18T06:46:24.679Z,-6.31
2022-12-18T06:48:51.647Z,-6.31
2022-12-18T06:51:20.105Z,-6.31
2022-12-18T06:53:46.808Z,-6.28
2022-12-18T06:56:13.482Z,-6.26
2022-12-18T06:58:40.610Z,-6.21
2022-12-18T07:01:09.846Z,-6.16
2022-12-18T07:03:37.208Z,-6.12
2022-12-18T07:06:04.593Z,-6.04
2022-12-18T07:08:32.458Z,-6.00
2022-12-18T07:10:59.056Z,-5.97
2022-12-18T07:13:25.813Z,-5.94
2022-12-18T07:15:52.236Z,-5.95
2022-12-18T07:18:18.641Z,-5.89
2022-12-18T07:20:45.138Z,-5.88
2022-12-18T07:23:12.448Z,-5.84
2022-12-18T07:25:38.952Z,-5.84
2022-12-18T07:28:05.582Z,-5.81
2022-12-18T07:30:32.251Z,-5.74
2022-12-18T07:32:58.646Z,-5.71
2022-12-18T07:35:25.612Z,-5.71
2022-12-18T07:37:52.295Z,-5.79
2022-12-18T07:40:19.053Z,-5.67
2022-12-18T07:42:45.476Z,-5.63
2022-12-18T07:45:11.915Z,-5.68
2022-12-18T07:47:38.654Z,-5.66
2022-12-18T07:50:07.028Z,-5.67
2022-12-18T07:52:33.553Z,-5.65
2022-12-18T07:55:00.567Z,-5.59
2022-12-18T07:57:49.377Z,-5.55
2022-12-18T08:00:14.137Z,-5.53
2022-12-18T08:02:40.755Z,-5.54
2022-12-18T08:05:09.289Z,-5.54
2022-12-18T08:07:35.718Z,-5.50
2022-12-18T08:10:02.148Z,-5.42
2022-12-18T08:12:28.592Z,-5.45
2022-12-18T08:14:55.005Z,-5.44
2022-12-18T08:17:21.506Z,-5.46
2022-12-18T08:19:47.903Z,-5.51
2022-12-18T08:22:14.342Z,-5.53
2022-12-18T08:24:40.801Z,-5.48
2022-12-18T08:27:28.349Z,-5.45
2022-12-18T08:29:53.631Z,-5.37
2022-12-18T08:32:20.204Z,-5.32
2022-12-18T08:34:46.693Z,-5.33
2022-12-18T08:37:13.358Z,-5.33
2022-12-18T08:39:39.774Z,-5.35
2022-12-18T08:42:24.949Z,-5.34
2022-12-18T08:44:51.370Z,-5.28
2022-12-18T08:47:17.792Z,-5.21
2022-12-18T08:49:44.270Z,-5.15
2022-12-18T08:52:10.718Z,-5.14
2022-12-18T08:54:37.126Z,-5.09
2022-12-18T08:57:03.643Z,-5.11
2022-12-18T08:59:30.129Z,-5.09
2022-12-18T09:01:56.717Z,-5.08
2022-12-18T09:04:23.509Z,-5.05
2022-12-18T09:06:50.403Z,-5.05
2022-12-18T09:09:16.826Z,-5.04
2022-12-18T09:11:43.506Z,-5.03
2022-12-18T09:14:10.506Z,-5.04
2022-12-18T09:16:37.166Z,-5.02
2022-12-18T09:19:05.312Z,-4.98
2022-12-18T09:21:36.737Z,-4.97
2022-12-18T09:24:05.236Z,-5.01
2022-12-18T09:26:35.448Z,-4.93
2022-12-18T09:29:03.503Z,-4.90
2022-12-18T09:31:29.929Z,-4.86
2022-12-18T09:33:57.642Z,-4.82
2022-12-18T09:36:24.314Z,-4.77
2022-12-18T09:38:50.788Z,-4.73
2022-12-18T09:41:41.344Z,-4.70
2022-12-18T09:44:33.743Z,-4.60
2022-12-18T09:47:15.521Z,-4.58
2022-12-18T09:49:45.474Z,-4.52
2022-12-18T09:52:19.094Z,-4.54
2022-12-18T09:54:52.944Z,-4.51
2022-12-18T09:57:24.039Z,-4.41
2022-12-18T10:00:03.819Z,-4.29
2022-12-18T10:02:38.334Z,-4.23
2022-12-18T10:05:12.928Z,-4.25
2022-12-18T10:07:58.847Z,-4.26
2022-12-18T10:10:38.501Z,-4.23
2022-12-18T10:13:27.762Z,-4.13
2022-12-18T10:16:12.825Z,-4.04
2022-12-18T10:19:18.270Z,-4.02
2022-12-18T10:22:23.529Z,-4.04
2022-12-18T10:25:46.416Z,-4.08
2022-12-18T10:28:18.178Z,-4.08
2022-12-18T10:30:45.260Z,-4.07
2022-12-18T10:33:16.887Z,-4.06
2022-12-18T10:35:44.192Z,-3.98
2022-12-18T10:38:13.420Z,-3.86
2022-12-18T10:41:04.989Z,-3.83
2022-12-18T10:43:36.821Z,-3.83
2022-12-18T10:46:09.329Z,-3.78
2022-12-18T10:48:49.329Z,-3.76
2022-12-18T10:51:25.430Z,-3.71
2022-12-18T10:53:56.086Z,-3.71
2022-12-18T10:56:24.720Z,-3.65
2022-12-18T10:59:02.739Z,-3.58
2022-12-18T11:01:46.053Z,-3.51
2022-12-18T11:04:18.478Z,-3.48
2022-12-18T11:07:04.156Z,-3.45
2022-12-18T11:09:40.934Z,-3.38
2022-12-18T11:12:19.481Z,-3.37
2022-12-18T11:14:50.372Z,-3.41
2022-12-18T11:17:26.153Z,-3.43
2022-12-18T11:19:55.237Z,-3.48
2022-12-18T11:22:27.235Z,-3.54
2022-12-18T11:25:33.316Z,-3.60
2022-12-18T11:28:25.600Z,-3.55
2022-12-18T11:31:10.409Z,-3.60
2022-12-18T11:33:49.387Z,-3.62
2022-12-18T11:36:26.677Z,-3.61
2022-12-18T11:38:56.473Z,-3.53
2022-12-18T11:41:50.512Z,-3.45
2022-12-18T11:44:25.986Z,-3.42
2022-12-18T11:47:10.238Z,-3.41
2022-12-18T11:49:37.107Z,-3.39
2022-12-18T11:52:25.136Z,-3.46
2022-12-18T11:54:54.004Z,-3.49
2022-12-18T11:57:40.313Z,-3.49
2022-12-18T12:00:22.864Z,-3.42
2022-12-18T12:03:07.600Z,-3.34
2022-12-18T12:05:46.110Z,-3.36
2022-12-18T12:08:33.614Z,-3.39
2022-12-18T12:11:23.617Z,-3.42
2022-12-18T12:14:05.323Z,-3.44
2022-12-18T12:16:59.999Z,-3.47
2022-12-18T12:19:37.882Z,-3.51
2022-12-18T12:22:29.174Z,-3.63
2022-12-18T12:25:10.535Z,-3.51
2022-12-18T12:27:44.565Z,-3.52
2022-12-18T12:30:27.118Z,-3.49
2022-12-18T12:33:07.216Z,-3.46
2022-12-18T12:35:57.858Z,-3.51
2022-12-18T12:38:29.132Z,-3.58
2022-12-18T12:41:30.002Z,-3.65
2022-12-18T12:44:00.843Z,-3.65
2022-12-18T12:46:28.758Z,-3.69
2022-12-18T12:49:05.198Z,-3.71
2022-12-18T12:51:44.409Z,-3.72
2022-12-18T12:54:22.385Z,-3.72
2022-12-18T12:57:00.956Z,-3.71
2022-12-18T12:59:59.169Z,-3.75
2022-12-18T13:02:56.039Z,-3.75
2022-12-18T13:05:34.724Z,-3.73
2022-12-18T13:08:08.339Z,-3.68
2022-12-18T13:10:40.728Z,-3.58
2022-12-18T13:13:11.093Z,-3.54
2022-12-18T13:16:06.118Z,-3.54
2022-12-18T13:18:34.246Z,-3.57
2022-12-18T13:21:03.351Z,-3.61
2022-12-18T13:23:43.328Z,-3.66
2022-12-18T13:26:23.375Z,-3.71
2022-12-18T13:28:55.451Z,-3.71
2022-12-18T13:31:30.751Z,-3.76
2022-12-18T13:34:27.420Z,-3.80
2022-12-18T13:36:56.649Z,-3.83
2022-12-18T13:39:32.780Z,-3.85
2022-12-18T13:42:07.146Z,-3.87
2022-12-18T13:44:41.586Z,-3.91
2022-12-18T13:47:32.515Z,-3.94
2022-12-18T13:49:59.602Z,-3.98
2022-12-18T13:52:29.486Z,-4.03
2022-12-18T13:54:58.810Z,-4.11
2022-12-18T13:57:39.440Z,-4.17
2022-12-18T14:00:29.504Z,-4.12
2022-12-18T14:02:57.487Z,-4.11
2022-12-18T14:05:26.231Z,-4.14
2022-12-18T14:07:53.777Z,-4.21
2022-12-18T14:13:11.346Z,-4.21
2022-12-18T14:15:44.443Z,-4.24
2022-12-18T14:18:26.126Z,-4.11
2022-12-18T14:20:56.647Z,-4.10
2022-12-18T14:23:32.902Z,-4.06
2022-12-18T14:26:05.447Z,-4.06
2022-12-18T14:28:32.774Z,-4.14
2022-12-18T14:30:59.350Z,-4.14
2022-12-18T14:33:27.902Z,-4.31
2022-12-18T14:35:54.342Z,-4.19
2022-12-18T14:38:24.585Z,-4.21
2022-12-18T14:40:58.678Z,-4.26
2022-12-18T14:43:25.774Z,-4.28
2022-12-18T14:45:52.685Z,-4.33
2022-12-18T14:48:34.516Z,-4.34
2022-12-18T14:51:03.477Z,-4.38
2022-12-18T14:53:42.201Z,-4.45
2022-12-18T14:56:29.989Z,-4.53
2022-12-18T14:59:18.049Z,-4.58
2022-12-18T15:01:57.977Z,-4.63
2022-12-18T15:04:32.284Z,-4.65
2022-12-18T15:07:20.079Z,-4.64
2022-12-18T15:10:04.724Z,-4.66
2022-12-18T15:12:44.896Z,-4.66
2022-12-18T15:15:40.461Z,-4.66
2022-12-18T15:18:11.306Z,-4.67
2022-12-18T15:20:54.288Z,-4.63
2022-12-18T15:23:39.005Z,-4.64
2022-12-18T15:26:13.904Z,-4.66
2022-12-18T15:28:46.689Z,-4.68
2022-12-18T15:31:13.161Z,-4.69
2022-12-18T15:33:46.981Z,-4.69
2022-12-18T15:36:17.993Z,-4.69
2022-12-18T15:38:49.621Z,-4.70
2022-12-18T15:41:24.200Z,-4.66
2022-12-18T15:43:54.317Z,-4.66
2022-12-18T15:46:26.261Z,-4.64
2022-12-18T15:49:01.797Z,-4.65
2022-12-18T15:51:32.647Z,-4.67
2022-12-18T15:54:01.852Z,-4.68
2022-12-18T15:56:47.104Z,-4.70
2022-12-18T15:59:19.980Z,-4.66
2022-12-18T16:01:48.841Z,-4.65
2022-12-18T16:04:17.669Z,-4.78
2022-12-18T16:07:13.329Z,-4.69
2022-12-18T16:09:30.743Z,-4.68
2022-12-18T16:11:57.194Z,-4.70
2022-12-18T16:14:26.925Z,-4.72
2022-12-18T16:17:02.763Z,-4.69
2022-12-18T16:19:30.428Z,-4.67
2022-12-18T16:21:58.732Z,-4.67
2022-12-18T16:24:28.236Z,-4.71
2022-12-18T16:26:56.531Z,-4.78
2022-12-18T16:29:27.785Z,-4.71
2022-12-18T16:31:54.799Z,-4.72
2022-12-18T16:34:29.598Z,-4.72
2022-12-18T16:37:06.014Z,-4.72
2022-12-18T16:39:34.949Z,-4.71
2022-12-18T16:42:07.418Z,-4.70
2022-12-18T16:44:34.932Z,-4.68
2022-12-18T16:47:03.813Z,-4.70
2022-12-18T16:49:30.799Z,-4.58
2022-12-18T16:51:57.744Z,-4.58
2022-12-18T16:54:24.289Z,-4.64
2022-12-18T16:56:51.847Z,-4.61
2022-12-18T16:59:18.492Z,-4.63
2022-12-18T17:01:45.061Z,-4.59
2022-12-18T17:04:11.864Z,-4.58
2022-12-18T17:06:45.485Z,-4.60
2022-12-18T17:09:15.291Z,-4.65
2022-12-18T17:11:42.249Z,-4.63
2022-12-18T17:14:12.458Z,-4.66
2022-12-18T17:16:39.011Z,-4.67
2022-12-18T17:19:09.753Z,-4.64
2022-12-18T17:21:40.186Z,-4.66
2022-12-18T17:24:07.459Z,-4.64
2022-12-18T17:26:33.923Z,-4.66
2022-12-18T17:29:00.632Z,-4.60
2022-12-18T17:31:30.095Z,-4.59
2022-12-18T17:33:57.850Z,-4.55
2022-12-18T17:36:24.944Z,-4.53
2022-12-18T17:38:55.024Z,-4.49
2022-12-18T17:41:21.787Z,-4.45
2022-12-18T17:43:55.283Z,-4.39
2022-12-18T17:46:22.549Z,-4.36
2022-12-18T17:48:49.044Z,-4.35
2022-12-18T17:51:16.834Z,-4.35
2022-12-18T17:53:44.182Z,-4.35
2022-12-18T17:56:15.661Z,-4.36
2022-12-18T17:58:42.956Z,-4.35
2022-12-18T18:01:12.612Z,-4.34
2022-12-18T18:03:41.760Z,-4.34
2022-12-18T18:06:09.157Z,-4.37
2022-12-18T18:08:36.394Z,-4.34
2022-12-18T18:11:33.593Z,-4.35
2022-12-18T18:14:04.124Z,-4.40
2022-12-18T18:16:34.215Z,-4.43
2022-12-18T18:19:02.954Z,-4.42
2022-12-18T18:21:30.119Z,-4.41
2022-12-18T18:23:59.841Z,-4.44
2022-12-18T18:26:29.160Z,-4.49
2022-12-18T18:28:57.105Z,-4.50
2022-12-18T18:31:23.856Z,-4.54
2022-12-18T18:33:51.261Z,-4.55
2022-12-18T18:36:17.845Z,-4.53
2022-12-18T18:38:48.394Z,-4.54
2022-12-18T18:41:15.782Z,-4.57
2022-12-18T18:43:42.608Z,-4.50
2022-12-18T18:46:12.999Z,-4.49
2022-12-18T18:48:40.237Z,-4.47
2022-12-18T18:51:14.670Z,-4.51
2022-12-18T18:53:49.361Z,-4.58
2022-12-18T18:59:05.275Z,-4.57
2022-12-18T19:01:31.813Z,-4.52
2022-12-18T19:03:58.305Z,-4.49
2022-12-18T19:06:27.569Z,-4.44
2022-12-18T19:08:56.140Z,-4.46
2022-12-18T19:11:44.073Z,-4.46
2022-12-18T19:14:13.557Z,-4.48
2022-12-18T19:16:40.518Z,-4.49
2022-12-18T19:19:07.458Z,-4.46
2022-12-18T19:21:34.908Z,-4.46
2022-12-18T19:24:02.592Z,-4.53
2022-12-18T19:26:29.668Z,-4.53
2022-12-18T19:29:04.058Z,-4.48
2022-12-18T19:31:35.571Z,-4.52
2022-12-18T19:34:07.270Z,-4.53
2022-12-18T19:36:39.149Z,-4.55
2022-12-18T19:39:11.625Z,-4.54
2022-12-18T19:41:39.350Z,-4.52
2022-12-18T19:44:08.266Z,-4.53
2022-12-18T19:46:35.692Z,-4.52
2022-12-18T19:49:02.342Z,-4.52
2022-12-18T19:51:31.067Z,-4.52
2022-12-18T19:54:01.162Z,-4.50
2022-12-18T19:56:31.437Z,-4.47
2022-12-18T19:58:58.285Z,-4.50
2022-12-18T20:01:26.321Z,-4.47
2022-12-18T20:03:54.473Z,-4.48
2022-12-18T20:06:51.842Z,-4.50
2022-12-18T20:09:19.237Z,-4.49
2022-12-18T20:11:47.189Z,-4.48
2022-12-18T20:14:18.760Z,-4.49
2022-12-18T20:16:50.616Z,-4.47
2022-12-18T20:19:17.408Z,-4.47
2022-12-18T20:21:43.939Z,-4.43
2022-12-18T20:24:10.461Z,-4.45
2022-12-18T20:26:36.979Z,-4.46
2022-12-18T20:29:03.486Z,-4.47
2022-12-18T20:31:30.246Z,-4.41
2022-12-18T20:34:00.169Z,-4.40
2022-12-18T20:36:28.176Z,-4.38
2022-12-18T20:38:59.198Z,-4.39
2022-12-18T20:41:28.183Z,-4.39
2022-12-18T20:44:04.699Z,-4.39
2022-12-18T20:46:31.158Z,-4.41
2022-12-18T20:48:57.856Z,-4.49
2022-12-18T20:51:24.389Z,-4.45
2022-12-18T20:53:51.002Z,-4.45
2022-12-18T20:56:21.667Z,-4.45
2022-12-18T20:58:49.546Z,-4.47
2022-12-18T21:01:19.275Z,-4.45
2022-12-18T21:03:47.184Z,-4.45
2022-12-18T21:06:15.999Z,-4.43
2022-12-18T21:08:42.881Z,-4.50
2022-12-18T21:11:32.038Z,-4.56
2022-12-18T21:13:59.034Z,-4.63
2022-12-18T21:16:25.962Z,-4.65
2022-12-18T21:18:52.697Z,-4.68
2022-12-18T21:21:26.181Z,-4.69
2022-12-18T21:23:53.708Z,-4.72
2022-12-18T21:26:22.980Z,-4.67
2022-12-18T21:29:01.013Z,-4.66
2022-12-18T21:31:30.402Z,-4.64
2022-12-18T21:34:00.944Z,-4.62
2022-12-18T21:36:30.008Z,-4.64
2022-12-18T21:38:57.652Z,-4.66
2022-12-18T21:41:44.587Z,-4.72
2022-12-18T21:44:13.381Z,-4.69
2022-12-18T21:46:45.783Z,-4.72
2022-12-18T21:49:17.319Z,-4.72
2022-12-18T21:51:45.023Z,-4.66
2022-12-18T21:54:11.693Z,-4.66
2022-12-18T21:57:04.376Z,-4.65
2022-12-18T21:59:32.458Z,-4.68
2022-12-18T22:02:01.009Z,-4.74
2022-12-18T22:04:27.842Z,-4.78
2022-12-18T22:06:55.265Z,-4.80
2022-12-18T22:09:23.517Z,-4.82
2022-12-18T22:11:51.297Z,-4.84
2022-12-18T22:14:17.848Z,-4.82
2022-12-18T22:16:44.272Z,-4.76
2022-12-18T22:19:12.565Z,-4.77
2022-12-18T22:21:43.326Z,-4.69
2022-12-18T22:24:26.926Z,-4.62
2022-12-18T22:27:01.977Z,-4.61
2022-12-18T22:29:47.033Z,-4.58
2022-12-18T22:32:16.858Z,-4.61
2022-12-18T22:34:49.850Z,-4.61
2022-12-18T22:37:16.285Z,-4.59
2022-12-18T22:39:42.773Z,-4.62
2022-12-18T22:42:09.864Z,-4.53
2022-12-18T22:44:36.269Z,-4.56
2022-12-18T22:47:06.240Z,-4.49
2022-12-18T22:49:34.849Z,-4.50
2022-12-18T22:52:03.350Z,-4.53
2022-12-18T22:54:29.848Z,-4.49
2022-12-18T22:56:57.127Z,-4.47
2022-12-18T22:59:24.022Z,-4.49
2022-12-18T23:01:58.754Z,-4.53
2022-12-18T23:04:31.212Z,-4.56
2022-12-18T23:07:03.949Z,-4.63
2022-12-18T23:09:30.383Z,-4.62
2022-12-18T23:11:57.630Z,-4.65
2022-12-18T23:14:24.081Z,-4.66
2022-12-18T23:16:52.206Z,-4.67
2022-12-18T23:19:19.602Z,-4.66
2022-12-18T23:21:46.306Z,-4.68
2022-12-18T23:24:12.916Z,-4.65
2022-12-18T23:26:39.399Z,-4.61
2022-12-18T23:29:06.257Z,-4.57
2022-12-18T23:31:38.474Z,-4.54
2022-12-18T23:34:06.289Z,-4.46
2022-12-18T23:36:46.188Z,-4.44
2022-12-18T23:39:17.175Z,-4.40
2022-12-18T23:41:56.075Z,-4.43
2022-12-18T23:44:22.513Z,-4.45
2022-12-18T23:46:49.079Z,-4.46
2022-12-18T23:49:15.610Z,-4.43
2022-12-18T23:51:42.044Z,-4.40
2022-12-18T23:54:09.888Z,-4.39
2022-12-18T23:56:36.377Z,-4.40
2022-12-18T23:59:02.968Z,-4.47
